sensor_id;sensor_type;location;lat;lon;timestamp;P1;durP1;ratioP1;P2;durP2;ratioP2
18881;SDS011;9573;50.948;11.600;2022-12-18T05:22:36;30.97;;;8.83;;
18881;SDS011;9573;50.948;11.600;2022-12-18T05:25:03;30.63;;;8.33;;
18881;SDS011;9573;50.948;11.600;2022-12-18T05:27:31;29.50;;;9.00;;
18881;SDS011;9573;50.948;11.600;2022-12-18T05:29:58;31.40;;;8.57;;
18881;SDS011;9573;50.948;11.600;2022-12-18T05:32:25;31.20;;;9.27;;
18881;SDS011;9573;50.948;11.600;2022-12-18T05:34:52;33.33;;;9.80;;
18881;SDS011;9573;50.948;11.600;2022-12-18T05:37:19;33.20;;;9.63;;
18881;SDS011;9573;50.948;11.600;2022-12-18T05:39:47;32.43;;;9.37;;
18881;SDS011;9573;50.948;11.600;2022-12-18T05:42:14;29.60;;;9.10;;
18881;SDS011;9573;50.948;11.600;2022-12-18T05:44:42;34.47;;;8.93;;
18881;SDS011;9573;50.948;11.600;2022-12-18T05:47:10;30.03;;;9.60;;
18881;SDS011;9573;50.948;11.600;2022-12-18T05:49:37;35.17;;;10.03;;
18881;SDS011;9573;50.948;11.600;2022-12-18T05:52:04;31.93;;;9.77;;
18881;SDS011;9573;50.948;11.600;2022-12-18T05:54:31;32.50;;;9.60;;
18881;SDS011;9573;50.948;11.600;2022-12-18T05:57:00;26.20;;;8.30;;
18881;SDS011;9573;50.948;11.600;2022-12-18T05:59:27;35.97;;;9.97;;
18881;SDS011;9573;50.948;11.600;2022-12-18T06:01:54;34.43;;;9.77;;
18881;SDS011;9573;50.948;11.600;2022-12-18T06:04:21;32.93;;;8.67;;
18881;SDS011;9573;50.948;11.600;2022-12-18T06:06:48;36.53;;;10.67;;
18881;SDS011;9573;50.948;11.600;2022-12-18T06:09:15;30.30;;;9.03;;
18881;SDS011;9573;50.948;11.600;2022-12-18T06:11:43;40.47;;;12.20;;
18881;SDS011;9573;50.948;11.600;2022-12-18T06:14:11;26.37;;;7.87;;
18881;SDS011;9573;50.948;11.600;2022-12-18T06:16:38;32.40;;;9.80;;
18881;SDS011;9573;50.948;11.600;2022-12-18T06:19:05;32.07;;;9.70;;
18881;SDS011;9573;50.948;11.600;2022-12-18T06:21:33;37.87;;;10.33;;
18881;SDS011;9573;50.948;11.600;2022-12-18T06:24:00;33.70;;;10.40;;
18881;SDS011;9573;50.948;11.600;2022-12-18T06:26:27;30.87;;;8.70;;
18881;SDS011;9573;50.948;11.600;2022-12-18T06:28:55;31.23;;;8.50;;
18881;SDS011;9573;50.948;11.600;2022-12-18T06:31:23;33.77;;;10.00;;
18881;SDS011;9573;50.948;11.600;2022-12-18T06:33:51;39.23;;;11.27;;
18881;SDS011;9573;50.948;11.600;2022-12-18T06:36:19;34.67;;;10.13;;
18881;SDS011;9573;50.948;11.600;2022-12-18T06:38:46;30.70;;;8.97;;
18881;SDS011;9573;50.948;11.600;2022-12-18T06:41:14;41.20;;;10.37;;
18881;SDS011;9573;50.948;11.600;2022-12-18T06:43:43;35.50;;;9.77;;
18881;SDS011;9573;50.948;11.600;2022-12-18T06:46:10;29.13;;;8.27;;
18881;SDS011;9573;50.948;11.600;2022-12-18T06:48:39;28.47;;;8.13;;
18881;SDS011;9573;50.948;11.600;2022-12-18T06:51:07;32.03;;;8.93;;
18881;SDS011;9573;50.948;11.600;2022-12-18T06:53:34;31.93;;;8.73;;
18881;SDS011;9573;50.948;11.600;2022-12-18T06:56:02;30.77;;;9.50;;
18881;SDS011;9573;50.948;11.600;2022-12-18T06:58:31;33.37;;;8.83;;
18881;SDS011;9573;50.948;11.600;2022-12-18T07:00:59;32.57;;;10.43;;
18881;SDS011;9573;50.948;11.600;2022-12-18T07:03:27;35.63;;;10.53;;
18881;SDS011;9573;50.948;11.600;2022-12-18T07:05:55;32.83;;;9.43;;
18881;SDS011;9573;50.948;11.600;2022-12-18T07:08:23;35.87;;;9.70;;
18881;SDS011;9573;50.948;11.600;2022-12-18T07:10:50;31.63;;;9.20;;
18881;SDS011;9573;50.948;11.600;2022-12-18T07:13:18;29.17;;;8.50;;
18881;SDS011;9573;50.948;11.600;2022-12-18T07:15:45;33.90;;;9.83;;
18881;SDS011;9573;50.948;11.600;2022-12-18T07:18:12;37.63;;;9.13;;
18881;SDS011;9573;50.948;11.600;2022-12-18T07:20:39;36.60;;;10.33;;
18881;SDS011;9573;50.948;11.600;2022-12-18T07:23:07;30.60;;;8.10;;
18881;SDS011;9573;50.948;11.600;2022-12-18T07:25:34;31.17;;;8.43;;
18881;SDS011;9573;50.948;11.600;2022-12-18T07:28:02;23.53;;;6.47;;
18881;SDS011;9573;50.948;11.600;2022-12-18T07:30:29;29.73;;;9.03;;
18881;SDS011;9573;50.948;11.600;2022-12-18T07:32:56;34.77;;;10.10;;
18881;SDS011;9573;50.948;11.600;2022-12-18T07:35:23;32.80;;;10.07;;
18881;SDS011;9573;50.948;11.600;2022-12-18T07:37:51;36.57;;;10.37;;
18881;SDS011;9573;50.948;11.600;2022-12-18T07:40:19;30.77;;;8.93;;
18881;SDS011;9573;50.948;11.600;2022-12-18T07:42:46;34.33;;;10.17;;
18881;SDS011;9573;50.948;11.600;2022-12-18T07:45:13;32.30;;;9.53;;
18881;SDS011;9573;50.948;11.600;2022-12-18T07:47:40;27.80;;;7.53;;
18881;SDS011;9573;50.948;11.600;2022-12-18T07:50:08;32.23;;;9.90;;
18881;SDS011;9573;50.948;11.600;2022-12-18T07:52:35;30.23;;;8.07;;
18881;SDS011;9573;50.948;11.600;2022-12-18T07:55:02;32.73;;;11.03;;
18881;SDS011;9573;50.948;11.600;2022-12-18T07:57:32;32.40;;;7.90;;
18881;SDS011;9573;50.948;11.600;2022-12-18T07:59:59;30.33;;;8.10;;
18881;SDS011;9573;50.948;11.600;2022-12-18T08:02:26;34.63;;;9.93;;
18881;SDS011;9573;50.948;11.600;2022-12-18T08:04:57;37.77;;;12.17;;
18881;SDS011;9573;50.948;11.600;2022-12-18T08:07:24;35.20;;;10.90;;
18881;SDS011;9573;50.948;11.600;2022-12-18T08:09:51;38.73;;;10.43;;
18881;SDS011;9573;50.948;11.600;2022-12-18T08:12:18;34.50;;;9.10;;
18881;SDS011;9573;50.948;11.600;2022-12-18T08:14:46;30.60;;;8.57;;
18881;SDS011;9573;50.948;11.600;2022-12-18T08:17:14;24.67;;;6.70;;
18881;SDS011;9573;50.948;11.600;2022-12-18T08:19:41;18.90;;;5.63;;
18881;SDS011;9573;50.948;11.600;2022-12-18T08:22:08;29.60;;;6.90;;
18881;SDS011;9573;50.948;11.600;2022-12-18T08:24:35;18.17;;;6.00;;
18881;SDS011;9573;50.948;11.600;2022-12-18T08:27:02;30.37;;;9.07;;
18881;SDS011;9573;50.948;11.600;2022-12-18T08:29:29;35.20;;;10.60;;
18881;SDS011;9573;50.948;11.600;2022-12-18T08:31:58;37.13;;;11.07;;
18881;SDS011;9573;50.948;11.600;2022-12-18T08:34:25;33.40;;;10.13;;
18881;SDS011;9573;50.948;11.600;2022-12-18T08:36:52;32.27;;;9.30;;
18881;SDS011;9573;50.948;11.600;2022-12-18T08:39:19;35.30;;;9.37;;
18881;SDS011;9573;50.948;11.600;2022-12-18T08:41:46;37.77;;;10.93;;
18881;SDS011;9573;50.948;11.600;2022-12-18T08:44:34;37.53;;;10.03;;
18881;SDS011;9573;50.948;11.600;2022-12-18T08:47:04;33.70;;;9.57;;
18881;SDS011;9573;50.948;11.600;2022-12-18T08:49:32;32.57;;;11.20;;
18881;SDS011;9573;50.948;11.600;2022-12-18T08:51:59;33.77;;;10.47;;
18881;SDS011;9573;50.948;11.600;2022-12-18T08:54:27;32.17;;;10.33;;
18881;SDS011;9573;50.948;11.600;2022-12-18T08:56:55;34.23;;;10.67;;
18881;SDS011;9573;50.948;11.600;2022-12-18T08:59:22;30.10;;;9.10;;
18881;SDS011;9573;50.948;11.600;2022-12-18T09:01:49;32.90;;;10.97;;
18881;SDS011;9573;50.948;11.600;2022-12-18T09:04:17;30.13;;;10.47;;
18881;SDS011;9573;50.948;11.600;2022-12-18T09:06:45;36.07;;;11.77;;
18881;SDS011;9573;50.948;11.600;2022-12-18T09:09:12;31.47;;;11.13;;
18881;SDS011;9573;50.948;11.600;2022-12-18T09:11:39;30.20;;;10.67;;
18881;SDS011;9573;50.948;11.600;2022-12-18T09:14:06;32.10;;;10.57;;
18881;SDS011;9573;50.948;11.600;2022-12-18T09:16:35;32.60;;;11.33;;
18881;SDS011;9573;50.948;11.600;2022-12-18T09:19:03;34.27;;;12.10;;
18881;SDS011;9573;50.948;11.600;2022-12-18T09:21:33;33.07;;;11.60;;
18881;SDS011;9573;50.948;11.600;2022-12-18T09:24:03;35.57;;;11.90;;
18881;SDS011;9573;50.948;11.600;2022-12-18T09:26:32;30.83;;;12.07;;
18881;SDS011;9573;50.948;11.600;2022-12-18T09:28:59;32.03;;;11.20;;
18881;SDS011;9573;50.948;11.600;2022-12-18T09:31:26;34.57;;;10.93;;
18881;SDS011;9573;50.948;11.600;2022-12-18T09:33:54;36.60;;;11.77;;
18881;SDS011;9573;50.948;11.600;2022-12-18T09:36:21;33.83;;;11.67;;
18881;SDS011;9573;50.948;11.600;2022-12-18T09:38:50;32.73;;;12.60;;
18881;SDS011;9573;50.948;11.600;2022-12-18T09:41:31;34.20;;;12.80;;
18881;SDS011;9573;50.948;11.600;2022-12-18T09:44:14;34.33;;;12.03;;
18881;SDS011;9573;50.948;11.600;2022-12-18T09:46:51;32.20;;;11.23;;
18881;SDS011;9573;50.948;11.600;2022-12-18T09:49:28;31.20;;;10.67;;
18881;SDS011;9573;50.948;11.600;2022-12-18T09:51:59;34.20;;;11.60;;
18881;SDS011;9573;50.948;11.600;2022-12-18T09:54:33;34.70;;;12.40;;
18881;SDS011;9573;50.948;11.600;2022-12-18T09:57:05;32.83;;;12.00;;
18881;SDS011;9573;50.948;11.600;2022-12-18T09:59:34;38.47;;;12.37;;
18881;SDS011;9573;50.948;11.600;2022-12-18T10:02:14;29.57;;;10.00;;
18881;SDS011;9573;50.948;11.600;2022-12-18T10:04:43;29.90;;;9.47;;
18881;SDS011;9573;50.948;11.600;2022-12-18T10:07:21;29.30;;;10.07;;
18881;SDS011;9573;50.948;11.600;2022-12-18T10:10:01;28.50;;;9.40;;
18881;SDS011;9573;50.948;11.600;2022-12-18T10:12:36;29.17;;;9.03;;
18881;SDS011;9573;50.948;11.600;2022-12-18T10:15:12;33.87;;;10.77;;
18881;SDS011;9573;50.948;11.600;2022-12-18T10:17:47;32.07;;;10.27;;
18881;SDS011;9573;50.948;11.600;2022-12-18T10:20:22;29.90;;;10.57;;
18881;SDS011;9573;50.948;11.600;2022-12-18T10:22:57;29.17;;;10.10;;
18881;SDS011;9573;50.948;11.600;2022-12-18T10:25:34;30.07;;;9.83;;
18881;SDS011;9573;50.948;11.600;2022-12-18T10:28:10;29.77;;;10.50;;
18881;SDS011;9573;50.948;11.600;2022-12-18T10:30:41;29.37;;;10.40;;
18881;SDS011;9573;50.948;11.600;2022-12-18T10:33:10;27.87;;;10.63;;
18881;SDS011;9573;50.948;11.600;2022-12-18T10:35:40;29.67;;;10.77;;
18881;SDS011;9573;50.948;11.600;2022-12-18T10:38:19;26.57;;;10.27;;
18881;SDS011;9573;50.948;11.600;2022-12-18T10:40:52;28.63;;;10.30;;
18881;SDS011;9573;50.948;11.600;2022-12-18T10:43:23;32.53;;;11.93;;
18881;SDS011;9573;50.948;11.600;2022-12-18T10:46:03;30.53;;;10.27;;
18881;SDS011;9573;50.948;11.600;2022-12-18T10:48:52;29.37;;;10.87;;
18881;SDS011;9573;50.948;11.600;2022-12-18T10:51:22;28.33;;;10.87;;
18881;SDS011;9573;50.948;11.600;2022-12-18T10:53:53;31.93;;;12.27;;
18881;SDS011;9573;50.948;11.600;2022-12-18T10:56:26;30.90;;;11.70;;
18881;SDS011;9573;50.948;11.600;2022-12-18T10:58:58;33.17;;;12.03;;
18881;SDS011;9573;50.948;11.600;2022-12-18T11:01:27;31.20;;;12.80;;
18881;SDS011;9573;50.948;11.600;2022-12-18T11:04:16;31.77;;;12.27;;
18881;SDS011;9573;50.948;11.600;2022-12-18T11:06:53;32.77;;;12.97;;
18881;SDS011;9573;50.948;11.600;2022-12-18T11:09:24;33.23;;;14.13;;
18881;SDS011;9573;50.948;11.600;2022-12-18T11:11:54;33.73;;;14.47;;
18881;SDS011;9573;50.948;11.600;2022-12-18T11:14:24;33.33;;;13.87;;
18881;SDS011;9573;50.948;11.600;2022-12-18T11:16:54;31.27;;;13.30;;
18881;SDS011;9573;50.948;11.600;2022-12-18T11:19:27;35.03;;;13.70;;
18881;SDS011;9573;50.948;11.600;2022-12-18T11:21:59;34.73;;;12.97;;
18881;SDS011;9573;50.948;11.600;2022-12-18T11:24:29;31.70;;;12.87;;
18881;SDS011;9573;50.948;11.600;2022-12-18T11:27:01;32.70;;;13.47;;
18881;SDS011;9573;50.948;11.600;2022-12-18T11:29:32;36.77;;;13.93;;
18881;SDS011;9573;50.948;11.600;2022-12-18T11:35:03;30.57;;;12.27;;
18881;SDS011;9573;50.948;11.600;2022-12-18T11:37:40;32.37;;;13.17;;
18881;SDS011;9573;50.948;11.600;2022-12-18T11:40:14;36.77;;;13.70;;
18881;SDS011;9573;50.948;11.600;2022-12-18T11:42:48;33.20;;;14.03;;
18881;SDS011;9573;50.948;11.600;2022-12-18T11:45:24;34.77;;;13.53;;
18881;SDS011;9573;50.948;11.600;2022-12-18T11:48:00;30.73;;;13.53;;
18881;SDS011;9573;50.948;11.600;2022-12-18T11:50:32;34.40;;;13.87;;
18881;SDS011;9573;50.948;11.600;2022-12-18T11:53:10;32.20;;;13.60;;
18881;SDS011;9573;50.948;11.600;2022-12-18T11:55:40;31.27;;;12.90;;
18881;SDS011;9573;50.948;11.600;2022-12-18T11:58:19;33.13;;;13.80;;
18881;SDS011;9573;50.948;11.600;2022-12-18T12:01:06;32.77;;;14.33;;
18881;SDS011;9573;50.948;11.600;2022-12-18T12:03:51;33.57;;;13.87;;
18881;SDS011;9573;50.948;11.600;2022-12-18T12:06:41;32.87;;;13.97;;
18881;SDS011;9573;50.948;11.600;2022-12-18T12:09:20;35.20;;;13.47;;
18881;SDS011;9573;50.948;11.600;2022-12-18T12:12:00;33.30;;;13.40;;
18881;SDS011;9573;50.948;11.600;2022-12-18T12:14:45;31.50;;;13.07;;
18881;SDS011;9573;50.948;11.600;2022-12-18T12:17:22;34.00;;;13.73;;
18881;SDS011;9573;50.948;11.600;2022-12-18T12:20:00;38.87;;;13.33;;
18881;SDS011;9573;50.948;11.600;2022-12-18T12:22:35;35.30;;;13.63;;
18881;SDS011;9573;50.948;11.600;2022-12-18T12:25:14;35.07;;;12.90;;
18881;SDS011;9573;50.948;11.600;2022-12-18T12:27:58;30.63;;;12.90;;
18881;SDS011;9573;50.948;11.600;2022-12-18T12:30:42;34.50;;;13.97;;
18881;SDS011;9573;50.948;11.600;2022-12-18T12:33:22;34.10;;;13.80;;
18881;SDS011;9573;50.948;11.600;2022-12-18T12:36:03;33.60;;;13.77;;
18881;SDS011;9573;50.948;11.600;2022-12-18T12:38:40;33.97;;;13.60;;
18881;SDS011;9573;50.948;11.600;2022-12-18T12:41:11;32.30;;;13.10;;
18881;SDS011;9573;50.948;11.600;2022-12-18T12:43:55;34.13;;;13.63;;
18881;SDS011;9573;50.948;11.600;2022-12-18T12:46:29;32.43;;;12.80;;
18881;SDS011;9573;50.948;11.600;2022-12-18T12:49:02;30.73;;;12.07;;
18881;SDS011;9573;50.948;11.600;2022-12-18T12:51:34;30.10;;;11.57;;
18881;SDS011;9573;50.948;11.600;2022-12-18T12:54:06;34.00;;;12.27;;
18881;SDS011;9573;50.948;11.600;2022-12-18T12:56:42;30.53;;;11.53;;
18881;SDS011;9573;50.948;11.600;2022-12-18T12:59:15;30.83;;;12.20;;
18881;SDS011;9573;50.948;11.600;2022-12-18T13:01:52;31.13;;;11.93;;
18881;SDS011;9573;50.948;11.600;2022-12-18T13:04:27;30.43;;;11.77;;
18881;SDS011;9573;50.948;11.600;2022-12-18T13:07:03;30.63;;;12.10;;
18881;SDS011;9573;50.948;11.600;2022-12-18T13:10:10;31.30;;;11.90;;
18881;SDS011;9573;50.948;11.600;2022-12-18T13:12:58;31.83;;;12.73;;
18881;SDS011;9573;50.948;11.600;2022-12-18T13:15:28;30.63;;;12.20;;
18881;SDS011;9573;50.948;11.600;2022-12-18T13:18:19;33.60;;;12.60;;
18881;SDS011;9573;50.948;11.600;2022-12-18T13:20:49;32.93;;;12.73;;
18881;SDS011;9573;50.948;11.600;2022-12-18T13:23:28;33.63;;;13.17;;
18881;SDS011;9573;50.948;11.600;2022-12-18T13:28:59;35.33;;;14.17;;
18881;SDS011;9573;50.948;11.600;2022-12-18T13:34:29;43.87;;;16.87;;
18881;SDS011;9573;50.948;11.600;2022-12-18T13:37:35;42.00;;;15.80;;
18881;SDS011;9573;50.948;11.600;2022-12-18T13:43:29;41.00;;;15.30;;
18881;SDS011;9573;50.948;11.600;2022-12-18T13:46:04;37.90;;;14.13;;
18881;SDS011;9573;50.948;11.600;2022-12-18T13:48:49;48.97;;;21.53;;
18881;SDS011;9573;50.948;11.600;2022-12-18T13:51:25;40.67;;;15.93;;
18881;SDS011;9573;50.948;11.600;2022-12-18T13:53:54;43.20;;;15.13;;
18881;SDS011;9573;50.948;11.600;2022-12-18T13:56:25;36.60;;;14.57;;
18881;SDS011;9573;50.948;11.600;2022-12-18T13:59:15;41.23;;;15.03;;
18881;SDS011;9573;50.948;11.600;2022-12-18T14:01:45;41.77;;;15.57;;
18881;SDS011;9573;50.948;11.600;2022-12-18T14:04:21;34.27;;;13.13;;
18881;SDS011;9573;50.948;11.600;2022-12-18T14:06:53;37.53;;;14.53;;
18881;SDS011;9573;50.948;11.600;2022-12-18T14:09:25;39.27;;;14.63;;
18881;SDS011;9573;50.948;11.600;2022-12-18T14:11:55;37.20;;;13.20;;
18881;SDS011;9573;50.948;11.600;2022-12-18T14:14:37;37.73;;;13.77;;
18881;SDS011;9573;50.948;11.600;2022-12-18T14:17:09;35.90;;;13.30;;
18881;SDS011;9573;50.948;11.600;2022-12-18T14:19:40;37.37;;;14.50;;
18881;SDS011;9573;50.948;11.600;2022-12-18T14:22:18;36.63;;;13.40;;
18881;SDS011;9573;50.948;11.600;2022-12-18T14:24:46;36.67;;;14.40;;
18881;SDS011;9573;50.948;11.600;2022-12-18T14:27:21;41.50;;;14.27;;
18881;SDS011;9573;50.948;11.600;2022-12-18T14:29:51;39.63;;;14.13;;
18881;SDS011;9573;50.948;11.600;2022-12-18T14:32:19;44.63;;;14.90;;
18881;SDS011;9573;50.948;11.600;2022-12-18T14:34:47;40.70;;;14.63;;
18881;SDS011;9573;50.948;11.600;2022-12-18T14:37:19;40.87;;;15.37;;
18881;SDS011;9573;50.948;11.600;2022-12-18T14:39:51;39.83;;;14.97;;
18881;SDS011;9573;50.948;11.600;2022-12-18T14:42:22;44.63;;;15.57;;
18881;SDS011;9573;50.948;11.600;2022-12-18T14:47:59;42.70;;;15.30;;
18881;SDS011;9573;50.948;11.600;2022-12-18T14:50:26;40.30;;;15.27;;
18881;SDS011;9573;50.948;11.600;2022-12-18T14:52:55;47.40;;;15.47;;
18881;SDS011;9573;50.948;11.600;2022-12-18T14:55:22;46.60;;;16.20;;
18881;SDS011;9573;50.948;11.600;2022-12-18T14:57:50;47.60;;;17.33;;
18881;SDS011;9573;50.948;11.600;2022-12-18T15:00:22;43.43;;;15.67;;
18881;SDS011;9573;50.948;11.600;2022-12-18T15:02:52;38.23;;;15.03;;
18881;SDS011;9573;50.948;11.600;2022-12-18T15:05:24;44.87;;;16.93;;
18881;SDS011;9573;50.948;11.600;2022-12-18T15:07:54;41.03;;;15.40;;
18881;SDS011;9573;50.948;11.600;2022-12-18T15:10:25;43.50;;;17.00;;
18881;SDS011;9573;50.948;11.600;2022-12-18T15:13:06;44.37;;;16.03;;
18881;SDS011;9573;50.948;11.600;2022-12-18T15:15:44;48.30;;;17.57;;
18881;SDS011;9573;50.948;11.600;2022-12-18T15:18:13;45.93;;;18.27;;
18881;SDS011;9573;50.948;11.600;2022-12-18T15:20:43;50.47;;;16.67;;
18881;SDS011;9573;50.948;11.600;2022-12-18T15:23:15;46.73;;;16.33;;
18881;SDS011;9573;50.948;11.600;2022-12-18T15:25:45;43.93;;;16.20;;
18881;SDS011;9573;50.948;11.600;2022-12-18T15:28:15;45.20;;;15.87;;
18881;SDS011;9573;50.948;11.600;2022-12-18T15:30:59;43.83;;;16.03;;
18881;SDS011;9573;50.948;11.600;2022-12-18T15:33:30;48.00;;;18.00;;
18881;SDS011;9573;50.948;11.600;2022-12-18T15:36:01;45.70;;;15.53;;
18881;SDS011;9573;50.948;11.600;2022-12-18T15:38:32;47.90;;;17.63;;
18881;SDS011;9573;50.948;11.600;2022-12-18T15:40:59;48.33;;;17.53;;
18881;SDS011;9573;50.948;11.600;2022-12-18T15:43:26;46.50;;;16.93;;
18881;SDS011;9573;50.948;11.600;2022-12-18T15:45:58;50.73;;;17.53;;
18881;SDS011;9573;50.948;11.600;2022-12-18T15:48:26;50.43;;;19.00;;
18881;SDS011;9573;50.948;11.600;2022-12-18T15:50:53;38.87;;;14.27;;
18881;SDS011;9573;50.948;11.600;2022-12-18T15:53:23;49.00;;;16.77;;
18881;SDS011;9573;50.948;11.600;2022-12-18T15:55:53;49.60;;;17.17;;
18881;SDS011;9573;50.948;11.600;2022-12-18T15:58:37;47.27;;;16.93;;
18881;SDS011;9573;50.948;11.600;2022-12-18T16:01:04;45.43;;;16.97;;
18881;SDS011;9573;50.948;11.600;2022-12-18T16:03:33;39.17;;;13.67;;
18881;SDS011;9573;50.948;11.600;2022-12-18T16:06:00;22.43;;;5.57;;
18881;SDS011;9573;50.948;11.600;2022-12-18T16:08:28;21.60;;;6.13;;
18881;SDS011;9573;50.948;11.600;2022-12-18T16:10:56;26.90;;;7.37;;
18881;SDS011;9573;50.948;11.600;2022-12-18T16:13:24;25.67;;;6.77;;
18881;SDS011;9573;50.948;11.600;2022-12-18T16:15:51;26.50;;;7.03;;
18881;SDS011;9573;50.948;11.600;2022-12-18T16:18:18;20.43;;;5.97;;
18881;SDS011;9573;50.948;11.600;2022-12-18T16:20:45;22.40;;;6.07;;
18881;SDS011;9573;50.948;11.600;2022-12-18T16:23:12;23.97;;;6.50;;
18881;SDS011;9573;50.948;11.600;2022-12-18T16:25:40;22.90;;;6.47;;
18881;SDS011;9573;50.948;11.600;2022-12-18T16:28:09;21.50;;;5.73;;
18881;SDS011;9573;50.948;11.600;2022-12-18T16:30:36;23.93;;;5.90;;
18881;SDS011;9573;50.948;11.600;2022-12-18T16:33:03;20.20;;;6.27;;
18881;SDS011;9573;50.948;11.600;2022-12-18T16:35:30;22.07;;;5.40;;
18881;SDS011;9573;50.948;11.600;2022-12-18T16:37:58;20.73;;;5.90;;
18881;SDS011;9573;50.948;11.600;2022-12-18T16:40:25;20.60;;;5.33;;
18881;SDS011;9573;50.948;11.600;2022-12-18T16:42:53;29.37;;;7.07;;
18881;SDS011;9573;50.948;11.600;2022-12-18T16:45:21;24.37;;;6.60;;
18881;SDS011;9573;50.948;11.600;2022-12-18T16:47:48;43.47;;;11.40;;
18881;SDS011;9573;50.948;11.600;2022-12-18T16:50:15;27.70;;;7.73;;
18881;SDS011;9573;50.948;11.600;2022-12-18T16:52:42;33.73;;;10.57;;
18881;SDS011;9573;50.948;11.600;2022-12-18T16:55:09;24.97;;;6.73;;
18881;SDS011;9573;50.948;11.600;2022-12-18T16:57:37;22.77;;;6.60;;
18881;SDS011;9573;50.948;11.600;2022-12-18T17:00:04;23.97;;;6.53;;
18881;SDS011;9573;50.948;11.600;2022-12-18T17:02:34;17.40;;;4.50;;
18881;SDS011;9573;50.948;11.600;2022-12-18T17:05:01;22.50;;;5.63;;
18881;SDS011;9573;50.948;11.600;2022-12-18T17:07:29;22.60;;;6.27;;
18881;SDS011;9573;50.948;11.600;2022-12-18T17:09:56;25.07;;;6.77;;
18881;SDS011;9573;50.948;11.600;2022-12-18T17:12:23;22.43;;;5.80;;
18881;SDS011;9573;50.948;11.600;2022-12-18T17:14:50;22.93;;;6.03;;
18881;SDS011;9573;50.948;11.600;2022-12-18T17:17:17;23.00;;;6.53;;
18881;SDS011;9573;50.948;11.600;2022-12-18T17:19:46;24.53;;;7.03;;
18881;SDS011;9573;50.948;11.600;2022-12-18T17:22:13;24.63;;;6.60;;
18881;SDS011;9573;50.948;11.600;2022-12-18T17:24:40;21.60;;;6.10;;
18881;SDS011;9573;50.948;11.600;2022-12-18T17:27:07;20.90;;;5.97;;
18881;SDS011;9573;50.948;11.600;2022-12-18T17:29:34;24.33;;;6.90;;
18881;SDS011;9573;50.948;11.600;2022-12-18T17:32:02;24.90;;;6.77;;
18881;SDS011;9573;50.948;11.600;2022-12-18T17:34:29;23.50;;;6.87;;
18881;SDS011;9573;50.948;11.600;2022-12-18T17:36:58;19.73;;;5.70;;
18881;SDS011;9573;50.948;11.600;2022-12-18T17:39:25;21.53;;;5.87;;
18881;SDS011;9573;50.948;11.600;2022-12-18T17:41:53;27.30;;;7.67;;
18881;SDS011;9573;50.948;11.600;2022-12-18T17:44:20;21.07;;;6.30;;
18881;SDS011;9573;50.948;11.600;2022-12-18T17:46:48;25.37;;;6.50;;
18881;SDS011;9573;50.948;11.600;2022-12-18T17:49:15;28.63;;;7.50;;
18881;SDS011;9573;50.948;11.600;2022-12-18T17:51:42;22.70;;;6.37;;
18881;SDS011;9573;50.948;11.600;2022-12-18T17:54:10;23.07;;;6.50;;
18881;SDS011;9573;50.948;11.600;2022-12-18T17:56:38;25.43;;;6.97;;
18881;SDS011;9573;50.948;11.600;2022-12-18T17:59:05;25.83;;;7.63;;
18881;SDS011;9573;50.948;11.600;2022-12-18T18:01:32;25.07;;;7.53;;
18881;SDS011;9573;50.948;11.600;2022-12-18T18:04:00;24.53;;;7.43;;
18881;SDS011;9573;50.948;11.600;2022-12-18T18:06:28;27.20;;;7.07;;
18881;SDS011;9573;50.948;11.600;2022-12-18T18:08:55;55.13;;;16.27;;
18881;SDS011;9573;50.948;11.600;2022-12-18T18:11:24;27.90;;;7.40;;
18881;SDS011;9573;50.948;11.600;2022-12-18T18:14:10;17.53;;;5.30;;
18881;SDS011;9573;50.948;11.600;2022-12-18T18:16:40;23.90;;;6.43;;
18881;SDS011;9573;50.948;11.600;2022-12-18T18:19:10;19.63;;;5.80;;
18881;SDS011;9573;50.948;11.600;2022-12-18T18:21:41;21.93;;;6.50;;
18881;SDS011;9573;50.948;11.600;2022-12-18T18:24:09;23.43;;;6.53;;
18881;SDS011;9573;50.948;11.600;2022-12-18T18:26:40;36.73;;;9.67;;
18881;SDS011;9573;50.948;11.600;2022-12-18T18:29:07;18.27;;;5.30;;
18881;SDS011;9573;50.948;11.600;2022-12-18T18:31:38;23.40;;;6.43;;
18881;SDS011;9573;50.948;11.600;2022-12-18T18:34:05;24.73;;;7.37;;
18881;SDS011;9573;50.948;11.600;2022-12-18T18:36:33;25.83;;;7.67;;
18881;SDS011;9573;50.948;11.600;2022-12-18T18:39:00;27.60;;;7.73;;
18881;SDS011;9573;50.948;11.600;2022-12-18T18:41:27;23.63;;;7.00;;
18881;SDS011;9573;50.948;11.600;2022-12-18T18:43:56;23.17;;;6.33;;
18881;SDS011;9573;50.948;11.600;2022-12-18T18:46:24;25.60;;;7.33;;
18881;SDS011;9573;50.948;11.600;2022-12-18T18:48:52;25.13;;;8.00;;
18881;SDS011;9573;50.948;11.600;2022-12-18T18:51:20;27.50;;;7.20;;
18881;SDS011;9573;50.948;11.600;2022-12-18T18:53:49;25.30;;;7.27;;
18881;SDS011;9573;50.948;11.600;2022-12-18T18:56:22;22.23;;;6.27;;
18881;SDS011;9573;50.948;11.600;2022-12-18T18:58:51;26.67;;;7.80;;
18881;SDS011;9573;50.948;11.600;2022-12-18T19:01:21;27.23;;;8.47;;
18881;SDS011;9573;50.948;11.600;2022-12-18T19:03:50;29.03;;;8.10;;
18881;SDS011;9573;50.948;11.600;2022-12-18T19:06:19;25.83;;;7.37;;
18881;SDS011;9573;50.948;11.600;2022-12-18T19:08:49;23.37;;;6.83;;
18881;SDS011;9573;50.948;11.600;2022-12-18T19:11:16;23.87;;;7.33;;
18881;SDS011;9573;50.948;11.600;2022-12-18T19:14:02;31.27;;;10.97;;
18881;SDS011;9573;50.948;11.600;2022-12-18T19:16:33;27.83;;;7.37;;
18881;SDS011;9573;50.948;11.600;2022-12-18T19:19:04;21.10;;;5.97;;
18881;SDS011;9573;50.948;11.600;2022-12-18T19:21:32;15.07;;;4.33;;
18881;SDS011;9573;50.948;11.600;2022-12-18T19:24:00;18.07;;;5.60;;
18881;SDS011;9573;50.948;11.600;2022-12-18T19:26:27;23.07;;;6.90;;
18881;SDS011;9573;50.948;11.600;2022-12-18T19:28:59;26.13;;;9.03;;
18881;SDS011;9573;50.948;11.600;2022-12-18T19:31:27;28.70;;;8.50;;
18881;SDS011;9573;50.948;11.600;2022-12-18T19:33:56;26.43;;;7.33;;
18881;SDS011;9573;50.948;11.600;2022-12-18T19:36:25;27.50;;;8.43;;
18881;SDS011;9573;50.948;11.600;2022-12-18T19:38:55;24.70;;;7.33;;
18881;SDS011;9573;50.948;11.600;2022-12-18T19:41:25;27.70;;;7.47;;
18881;SDS011;9573;50.948;11.600;2022-12-18T19:43:53;23.27;;;7.00;;
18881;SDS011;9573;50.948;11.600;2022-12-18T19:46:20;24.50;;;7.47;;
18881;SDS011;9573;50.948;11.600;2022-12-18T19:48:48;32.43;;;9.67;;
18881;SDS011;9573;50.948;11.600;2022-12-18T19:51:18;26.77;;;8.03;;
18881;SDS011;9573;50.948;11.600;2022-12-18T19:53:47;24.63;;;7.23;;
18881;SDS011;9573;50.948;11.600;2022-12-18T19:56:15;27.37;;;8.20;;
18881;SDS011;9573;50.948;11.600;2022-12-18T19:58:44;28.83;;;9.00;;
18881;SDS011;9573;50.948;11.600;2022-12-18T20:01:12;22.90;;;6.73;;
18881;SDS011;9573;50.948;11.600;2022-12-18T20:03:40;29.47;;;8.40;;
18881;SDS011;9573;50.948;11.600;2022-12-18T20:06:07;28.33;;;8.57;;
18881;SDS011;9573;50.948;11.600;2022-12-18T20:08:38;25.13;;;7.60;;
18881;SDS011;9573;50.948;11.600;2022-12-18T20:11:06;24.20;;;7.10;;
18881;SDS011;9573;50.948;11.600;2022-12-18T20:13:34;22.90;;;6.40;;
18881;SDS011;9573;50.948;11.600;2022-12-18T20:16:01;26.90;;;7.27;;
18881;SDS011;9573;50.948;11.600;2022-12-18T20:18:29;27.57;;;7.40;;
18881;SDS011;9573;50.948;11.600;2022-12-18T20:20:56;25.37;;;7.90;;
18881;SDS011;9573;50.948;11.600;2022-12-18T20:23:23;16.23;;;4.70;;
18881;SDS011;9573;50.948;11.600;2022-12-18T20:25:52;27.67;;;8.27;;